Time;durP1;ratioP1;P1;durP2;ratioP2;P2;SDS_P1;SDS_P2;PMS_P1;PMS_P2;Temp;Humidity;BMP_temperature;BMP_pressure;BME280_temperature;BME280_humidity;BME280_pressure;Samples;Min_cycle;Max_cycle;Signal;HPM_P1;HPM_P2
2023/02/07 00:01:29;;;;;;;23.63;10.35;;;;;;;5.20;60.34;103928.41;4833847;29;121900;-74
2023/02/07 00:03:57;;;;;;;25.33;10.32;;;;;;;5.19;60.01;103937.13;4838496;29;124817;-74
2023/02/07 00:06:28;;;;;;;30.70;10.43;;;;;;;5.17;60.29;103944.09;4829180;28;114431;-73
2023/02/07 00:08:57;;;;;;;28.83;10.57;;;;;;;5.15;59.98;103935.28;4838852;29;114512;-74
2023/02/07 00:11:24;;;;;;;30.67;9.85;;;;;;;5.14;60.44;103933.50;4841068;28;124103;-73
2023/02/07 00:13:55;;;;;;;29.52;11.38;;;;;;;5.12;60.03;103935.19;4845520;29;124307;-74
2023/02/07 00:16:24;;;;;;;28.48;10.23;;;;;;;5.12;60.30;103935.19;4843558;28;115132;-73
2023/02/07 00:18:53;;;;;;;30.23;10.68;;;;;;;5.11;60.26;103930.78;4843863;29;115018;-74
2023/02/07 00:21:22;;;;;;;26.23;10.32;;;;;;;5.12;60.47;103929.94;4825826;29;123431;-73
2023/02/07 00:23:50;;;;;;;28.25;10.73;;;;;;;5.11;60.35;103933.41;4841324;28;123889;-73
2023/02/07 00:26:20;;;;;;;29.92;10.57;;;;;;;5.11;60.32;103933.41;4841355;29;114251;-73
2023/02/07 00:28:49;;;;;;;25.55;10.57;;;;;;;5.11;60.68;103922.91;4841926;28;114479;-73
2023/02/07 00:31:22;;;;;;;31.65;10.65;;;;;;;5.12;60.68;103929.94;4837015;29;124176;-73
2023/02/07 00:33:53;;;;;;;31.13;10.63;;;;;;;5.11;60.52;103922.91;4834436;29;121815;-73
2023/02/07 00:36:22;;;;;;;26.33;10.15;;;;;;;5.11;60.60;103925.53;4829272;29;113241;-73
2023/02/07 00:38:50;;;;;;;31.08;10.40;;;;;;;5.12;60.29;103924.69;4845759;29;113758;-73
2023/02/07 00:41:17;;;;;;;34.67;11.02;;;;;;;5.12;60.29;103919.41;4820078;29;123033;-73
2023/02/07 00:43:46;;;;;;;27.75;11.05;;;;;;;5.11;60.67;103917.66;4845746;29;124500;-73
2023/02/07 00:46:15;;;;;;;25.50;11.32;;;;;;;5.10;60.67;103914.97;4842544;28;114577;-73
2023/02/07 00:48:42;;;;;;;27.60;10.60;;;;;;;5.09;60.45;103914.09;4806469;28;1147843;-73
2023/02/07 00:51:12;;;;;;;25.48;10.55;;;;;;;5.07;60.72;103907.91;4836820;28;123678;-73
2023/02/07 00:53:40;;;;;;;22.95;9.90;;;;;;;5.04;60.25;103905.19;4848776;28;124628;-73
2023/02/07 00:56:07;;;;;;;26.25;10.25;;;;;;;5.00;60.25;103922.59;4835368;28;114002;-73
2023/02/07 00:58:36;;;;;;;28.58;10.93;;;;;;;4.97;60.46;103919.00;4849330;29;114609;-73
2023/02/07 01:01:05;;;;;;;24.38;9.95;;;;;;;4.93;60.30;103917.13;4850039;29;124464;-73
2023/02/07 01:03:32;;;;;;;30.13;11.02;;;;;;;4.91;60.34;103918.84;4839644;29;122934;-73
2023/02/07 01:06:00;;;;;;;27.70;10.60;;;;;;;4.88;60.57;103917.91;4849820;28;115066;-73
2023/02/07 01:08:28;;;;;;;26.15;9.98;;;;;;;4.85;60.22;103920.44;4835105;29;114561;-73
2023/02/07 01:11:00;;;;;;;25.95;9.93;;;;;;;4.83;60.37;103916.88;4831597;29;124179;-73
2023/02/07 01:13:29;;;;;;;25.45;9.65;;;;;;;4.80;60.31;103916.81;4837999;28;124477;-73
2023/02/07 01:16:01;;;;;;;28.13;9.73;;;;;;;4.77;60.31;103916.72;4835526;29;113971;-73
2023/02/07 01:18:29;;;;;;;27.27;9.88;;;;;;;4.74;60.46;103906.09;4833918;29;114516;-73
2023/02/07 01:20:56;;;;;;;28.02;9.98;;;;;;;4.72;60.51;103918.31;4844940;29;122930;-73
2023/02/07 01:23:23;;;;;;;27.27;9.63;;;;;;;4.70;60.34;103925.25;4840635;29;123987;-73
2023/02/07 01:25:51;;;;;;;28.08;10.73;;;;;;;4.66;60.65;103919.00;4838181;29;112746;-75
2023/02/07 01:28:18;;;;;;;23.27;10.13;;;;;;;4.67;60.43;103912.94;4854066;29;116324;-74
2023/02/07 01:30:46;;;;;;;30.88;10.27;;;;;;;4.66;60.73;103907.63;4852953;28;124170;-73
2023/02/07 01:33:13;;;;;;;22.23;9.68;;;;;;;4.66;60.70;103905.00;4838776;29;123622;-73
2023/02/07 01:35:45;;;;;;;27.83;10.00;;;;;;;4.64;60.34;103904.97;4837950;29;114617;-73
2023/02/07 01:38:12;;;;;;;22.00;9.15;;;;;;;4.63;60.28;103923.28;4832486;29;114778;-73
2023/02/07 01:40:40;;;;;;;22.23;9.63;;;;;;;4.61;60.58;103935.47;4833196;29;124290;-73
2023/02/07 01:43:16;;;;;;;29.50;10.27;;;;;;;4.59;60.42;103926.66;4850704;29;124296;-73
2023/02/07 01:45:44;;;;;;;30.13;10.13;;;;;;;4.58;61.03;103924.91;4838723;29;113630;-73
2023/02/07 01:48:23;;;;;;;23.52;10.10;;;;;;;4.55;60.49;103930.06;4839608;29;113239;-73
2023/02/07 01:50:53;;;;;;;28.40;11.27;;;;;;;4.55;60.32;103940.56;4841694;28;123269;-73
2023/02/07 01:53:24;;;;;;;30.35;10.40;;;;;;;4.53;60.60;103942.25;4851596;28;123867;-73
2023/02/07 01:55:55;;;;;;;27.85;9.57;;;;;;;4.51;60.30;103928.19;4841119;29;114768;-73
2023/02/07 01:58:23;;;;;;;26.75;10.93;;;;;;;4.49;60.24;103928.13;4835635;28;114045;-73
2023/02/07 02:00:53;;;;;;;24.50;9.90;;;;;;;4.43;60.38;103936.72;4838522;29;123282;-73
2023/02/07 02:03:20;;;;;;;29.20;10.35;;;;;;;4.40;60.45;103935.72;4831965;28;122963;-73
2023/02/07 02:05:53;;;;;;;28.02;10.00;;;;;;;4.34;60.26;103931.19;4829157;29;114464;-73
2023/02/07 02:08:23;;;;;;;30.10;10.57;;;;;;;4.31;60.38;103928.44;4831435;29;113412;-73
2023/02/07 02:11:16;;;;;;;26.90;9.88;;;;;;;4.27;60.22;103921.31;4839967;29;123230;-73
2023/02/07 02:14:12;;;;;;;27.10;10.20;;;;;;;4.21;60.20;103929.00;4837182;28;122890;-73
2023/02/07 02:17:12;;;;;;;28.95;10.27;;;;;;;4.16;60.48;103925.34;4855562;29;114835;-73
2023/02/07 02:20:17;;;;;;;24.38;10.65;;;;;;;4.12;60.42;103936.59;4851735;29;113652;-73
2023/02/07 02:22:58;;;;;;;22.98;9.93;;;;;;;4.08;60.52;103944.34;4831362;29;123611;-73
2023/02/07 02:25:47;;;;;;;27.70;10.43;;;;;;;4.04;60.31;103932.00;4848665;28;123855;-72
2023/02/07 02:28:28;;;;;;;25.80;10.50;;;;;;;4.01;60.39;103926.66;4832084;29;114274;-73
2023/02/07 02:31:35;;;;;;;28.85;10.50;;;;;;;3.98;60.73;103931.81;4831849;28;112856;-72
2023/02/07 02:34:08;;;;;;;28.15;10.02;;;;;;;3.96;60.83;103928.25;4842435;28;124223;-72
2023/02/07 02:37:09;;;;;;;25.27;10.25;;;;;;;3.94;60.44;103929.94;4843536;28;124746;-73
2023/02/07 02:40:02;;;;;;;24.30;9.13;;;;;;;3.93;60.32;103937.75;4847304;28;114549;-72
2023/02/07 02:42:45;;;;;;;30.08;9.65;;;;;;;3.91;60.36;103935.06;4840342;28;113653;-72
2023/02/07 02:45:29;;;;;;;27.02;9.70;;;;;;;3.89;60.57;103936.75;4831647;29;123716;-72
2023/02/07 02:47:57;;;;;;;26.25;9.05;;;;;;;3.88;60.53;103934.94;4854096;28;122971;-72
2023/02/07 02:50:27;;;;;;;27.90;10.50;;;;;;;3.89;60.34;103942.00;4810793;29;114581;-73
2023/02/07 02:52:57;;;;;;;20.00;7.85;;;;;;;3.86;60.29;103927.06;4851810;29;114423;-73
2023/02/07 02:56:17;;;;;;;27.55;9.23;;;;;;;3.83;60.11;103924.31;4831468;29;123555;-73
2023/02/07 02:59:03;;;;;;;19.77;7.82;;;;;;;3.77;60.06;103925.84;4795153;29;123189;-73
2023/02/07 03:01:53;;;;;;;19.17;7.87;;;;;;;3.73;60.29;103923.97;4816918;29;113873;-72
2023/02/07 03:04:44;;;;;;;22.63;7.55;;;;;;;3.69;60.15;103928.22;4818206;29;113078;-72
2023/02/07 03:07:27;;;;;;;20.35;8.27;;;;;;;3.65;60.32;103921.97;4853039;29;124251;-72
2023/02/07 03:10:11;;;;;;;21.70;8.30;;;;;;;3.63;60.38;103922.75;4851809;28;124079;-72
2023/02/07 03:12:48;;;;;;;23.17;8.20;;;;;;;3.59;60.40;103921.78;4834931;29;113220;-72
2023/02/07 03:15:22;;;;;;;23.98;8.55;;;;;;;3.59;60.31;103927.00;4834861;29;113176;-71
2023/02/07 03:17:59;;;;;;;24.63;9.30;;;;;;;3.57;60.25;103939.16;4827234;29;124300;-71
2023/02/07 03:20:37;;;;;;;20.75;8.65;;;;;;;3.57;60.49;103933.94;4845163;28;124297;-72
2023/02/07 03:23:09;;;;;;;26.88;9.38;;;;;;;3.55;60.29;103940.84;4838390;29;113876;-71
2023/02/07 03:25:39;;;;;;;23.38;8.32;;;;;;;3.54;60.22;103933.81;4831790;29;113301;-71
2023/02/07 03:28:09;;;;;;;20.73;8.20;;;;;;;3.54;60.19;103922.44;4835198;29;123125;-72
2023/02/07 03:30:39;;;;;;;18.40;7.97;;;;;;;3.50;60.05;103931.94;4846081;28;124664;-71
2023/02/07 03:33:11;;;;;;;20.15;7.90;;;;;;;3.46;60.19;103930.06;4845716;28;114371;-71
2023/02/07 03:35:41;;;;;;;23.20;8.27;;;;;;;3.44;60.03;103929.13;4850360;29;113558;-71
2023/02/07 03:38:11;;;;;;;30.92;7.97;;;;;;;3.40;60.13;103925.50;4852666;29;124763;-71
2023/02/07 03:40:43;;;;;;;27.67;8.63;;;;;;;3.38;60.17;103926.28;4848576;28;123463;-71
2023/02/07 03:43:10;;;;;;;24.70;8.73;;;;;;;3.34;59.86;103930.53;4836928;28;115065;-71
2023/02/07 03:45:37;;;;;;;23.73;8.55;;;;;;;3.33;59.91;103933.09;4849933;29;115049;-71
2023/02/07 03:48:05;;;;;;;24.52;8.73;;;;;;;3.29;59.66;103932.97;4843564;29;124342;-71
2023/02/07 03:50:32;;;;;;;24.92;8.73;;;;;;;3.25;60.04;103931.09;4849808;28;124233;-71
2023/02/07 03:53:00;;;;;;;22.13;8.68;;;;;;;3.20;59.87;103927.44;4837864;29;114362;-71
2023/02/07 03:55:27;;;;;;;23.50;9.10;;;;;;;3.16;59.84;103920.28;4832029;29;112964;-71
2023/02/07 03:57:56;;;;;;;22.52;8.68;;;;;;;3.13;60.08;103920.19;4847317;29;124102;-73
2023/02/07 04:00:23;;;;;;;22.73;8.82;;;;;;;3.10;59.85;103920.06;4830572;29;121850;-71
2023/02/07 04:02:50;;;;;;;42.42;9.48;;;;;;;3.08;59.92;103916.50;4832094;28;113307;-72
2023/02/07 04:05:17;;;;;;;50.00;9.20;;;;;;;3.05;60.03;103922.53;4832200;29;114424;-70
2023/02/07 04:07:45;;;;;;;143.68;16.33;;;;;;;3.01;60.04;103920.63;4827516;29;124218;-70
2023/02/07 04:10:12;;;;;;;48.90;9.35;;;;;;;2.97;60.05;103913.50;4853276;29;124311;-70
2023/02/07 04:12:39;;;;;;;23.55;9.00;;;;;;;2.95;59.97;103924.75;4850278;28;114427;-70
2023/02/07 04:15:08;;;;;;;26.88;8.18;;;;;;;2.91;60.16;103914.16;4848163;28;113848;-70
2023/02/07 04:17:36;;;;;;;19.38;7.93;;;;;;;2.90;60.10;103912.41;4850400;29;123895;-71
2023/02/07 04:20:04;;;;;;;45.08;8.40;;;;;;;2.87;59.97;103907.03;4849759;29;124772;-70
2023/02/07 04:22:31;;;;;;;38.53;9.15;;;;;;;2.85;60.12;103913.06;4834444;29;113949;-70
2023/02/07 04:24:59;;;;;;;30.67;9.88;;;;;;;2.83;60.25;103910.38;4828314;28;113084;-71
2023/02/07 04:27:26;;;;;;;55.42;8.57;;;;;;;2.81;60.01;103912.06;4847869;29;124140;-70
2023/02/07 04:29:53;;;;;;;28.13;8.80;;;;;;;2.78;60.15;103906.69;4830461;29;123776;-70
2023/02/07 04:32:21;;;;;;;30.80;10.00;;;;;;;2.77;60.19;103911.88;4849079;29;115560;-70
2023/02/07 04:34:48;;;;;;;28.08;9.30;;;;;;;2.73;60.33;103903.94;4835272;29;114978;-70
2023/02/07 04:37:15;;;;;;;28.15;10.10;;;;;;;2.72;59.79;103909.09;4854575;28;123715;-70
2023/02/07 04:39:42;;;;;;;30.40;9.95;;;;;;;2.71;59.79;103909.91;4830131;29;122741;-70
2023/02/07 04:42:10;;;;;;;31.63;10.10;;;;;;;2.69;60.22;103911.59;4854690;28;114239;-70
2023/02/07 04:44:37;;;;;;;40.20;10.98;;;;;;;2.68;60.48;103907.22;4847455;29;114710;-70
2023/02/07 04:47:05;;;;;;;92.10;11.88;;;;;;;2.67;60.29;103900.19;4831308;29;124289;-70
2023/02/07 04:49:34;;;;;;;61.58;12.10;;;;;;;2.65;60.26;103894.88;4849180;29;124927;-70
2023/02/07 04:52:01;;;;;;;25.98;9.75;;;;;;;2.64;60.38;103892.22;4835538;29;113767;-70
2023/02/07 04:54:28;;;;;;;33.05;10.23;;;;;;;2.63;60.17;103887.81;4832661;29;114605;-70
2023/02/07 04:56:55;;;;;;;32.03;10.35;;;;;;;2.63;60.53;103895.66;4845979;28;124730;-70
2023/02/07 04:59:23;;;;;;;48.72;10.30;;;;;;;2.64;60.36;103902.69;4847115;29;124044;-71
2023/02/07 05:01:50;;;;;;;29.35;9.60;;;;;;;2.66;60.35;103895.78;4837483;29;114190;-71
2023/02/07 05:04:17;;;;;;;49.22;11.07;;;;;;;2.67;60.34;103887.09;4850940;28;113782;-71
2023/02/07 05:06:46;;;;;;;51.30;12.10;;;;;;;2.69;60.34;103885.41;4824715;29;123928;-71
2023/02/07 05:09:13;;;;;;;34.95;11.38;;;;;;;2.70;60.43;103897.69;4833381;29;123769;-70
2023/02/07 05:11:40;;;;;;;57.22;10.90;;;;;;;2.71;60.46;103894.22;4850834;29;114332;-70
2023/02/07 05:14:08;;;;;;;30.48;10.57;;;;;;;2.71;60.42;103894.22;4851164;29;114605;-71
2023/02/07 05:16:35;;;;;;;28.35;10.52;;;;;;;2.71;60.35;103900.38;4850533;29;124019;-71
2023/02/07 05:19:02;;;;;;;37.15;11.43;;;;;;;2.72;60.41;103902.13;4849024;28;124178;-71
2023/02/07 05:21:31;;;;;;;71.80;13.75;;;;;;;2.72;60.75;103907.38;4835884;29;114298;-71
2023/02/07 05:23:58;;;;;;;39.25;12.48;;;;;;;2.71;60.47;103904.69;4850542;28;114983;-71
2023/02/07 05:26:26;;;;;;;45.03;12.95;;;;;;;2.71;60.44;103909.91;4845336;29;123714;-71
2023/02/07 05:28:53;;;;;;;41.50;12.65;;;;;;;2.71;60.47;103909.91;4835129;29;124480;-71
2023/02/07 05:33:02;;;;;;;58.58;13.60;;;;;;;2.73;60.62;103908.25;4848107;28;114027;-71
2023/02/07 05:34:08;;;;;;;58.00;12.85;;;;;;;2.77;60.56;103904.94;4851056;29;114462;-71
2023/02/07 05:36:35;;;;;;;92.05;14.00;;;;;;;2.78;60.80;103911.94;4849218;28;123778;-71
2023/02/07 05:39:03;;;;;;;57.72;14.73;;;;;;;2.80;60.60;103915.50;4835732;29;124260;-71
2023/02/07 05:41:31;;;;;;;41.63;12.15;;;;;;;2.81;60.55;103919.91;4831495;29;115087;-71
2023/02/07 05:43:58;;;;;;;42.65;13.48;;;;;;;2.83;60.68;103926.09;4850303;29;113843;-71
2023/02/07 05:46:25;;;;;;;124.13;17.98;;;;;;;2.87;60.78;103922.75;4836048;29;123378;-71
2023/02/07 05:48:52;;;;;;;109.72;14.68;;;;;;;2.87;60.30;103925.38;4831654;29;124628;-72
2023/02/07 05:51:20;;;;;;;111.20;19.42;;;;;;;2.82;60.19;103932.16;4849329;29;114004;-71
2023/02/07 05:53:47;;;;;;;55.92;10.88;;;;;;;2.78;60.39;103932.00;4847445;28;114534;-71
2023/02/07 05:56:14;;;;;;;85.30;14.48;;;;;;;2.73;60.38;103923.94;4845420;29;125305;-71
2023/02/07 05:58:41;;;;;;;45.35;12.85;;;;;;;2.69;60.35;103928.22;4852346;28;124054;-71
2023/02/07 06:01:09;;;;;;;33.35;10.65;;;;;;;2.68;60.52;103930.75;4830029;29;114986;-71
2023/02/07 06:03:36;;;;;;;43.25;15.25;;;;;;;2.69;60.53;103937.75;4828916;28;113126;-71
2023/02/07 06:06:04;;;;;;;61.97;11.60;;;;;;;2.68;60.61;103931.63;4837305;29;123099;-71
2023/02/07 06:08:31;;;;;;;61.83;11.77;;;;;;;2.68;60.36;103936.00;4849560;28;123297;-71
2023/02/07 06:10:58;;;;;;;56.75;14.20;;;;;;;2.63;60.18;103942.78;4839917;29;114744;-71
2023/02/07 06:13:25;;;;;;;47.03;10.80;;;;;;;2.57;59.85;103945.16;4845216;29;114891;-70
2023/02/07 06:15:53;;;;;;;74.57;10.60;;;;;;;2.52;60.27;103940.66;4854507;28;124464;-71
2023/02/07 06:18:20;;;;;;;67.65;11.50;;;;;;;2.47;60.44;103936.97;4852070;29;124078;-71
2023/02/07 06:20:49;;;;;;;58.05;12.57;;;;;;;2.41;60.22;103947.19;4855311;28;114100;-72
2023/02/07 06:23:18;;;;;;;44.65;9.48;;;;;;;2.32;60.15;103946.81;4836496;28;113491;-70
2023/02/07 06:25:45;;;;;;;84.45;11.38;;;;;;;2.26;60.19;103951.78;4851402;28;124019;-70
2023/02/07 06:28:12;;;;;;;40.03;9.48;;;;;;;2.19;60.36;103955.00;4847009;29;123796;-70
2023/02/07 06:30:39;;;;;;;62.83;8.98;;;;;;;2.12;60.42;103959.09;4834137;29;114397;-71
2023/02/07 06:33:07;;;;;;;97.35;9.23;;;;;;;2.09;60.38;103954.63;4852658;28;114814;-70
2023/02/07 06:35:34;;;;;;;145.30;10.88;;;;;;;2.11;60.52;103968.66;4851124;28;124473;-71
2023/02/07 06:38:02;;;;;;;154.52;9.77;;;;;;;2.09;60.60;103959.88;4835931;29;123170;-70
2023/02/07 06:40:29;;;;;;;205.85;11.50;;;;;;;2.08;60.29;103968.53;4851037;28;114919;-70
2023/02/07 06:42:56;;;;;;;52.72;8.50;;;;;;;2.05;60.32;103973.63;4838551;28;115183;-70
2023/02/07 06:45:24;;;;;;;24.98;7.72;;;;;;;2.04;60.49;103974.47;4838259;29;124843;-70
2023/02/07 06:47:51;;;;;;;53.95;9.35;;;;;;;2.04;60.52;103976.19;4832594;28;122898;-70
2023/02/07 06:50:18;;;;;;;53.05;8.98;;;;;;;2.05;60.56;103973.63;4857327;28;114963;-70
2023/02/07 06:52:45;;;;;;;48.17;8.52;;;;;;;2.06;60.33;103975.41;4834406;29;112990;-71
2023/02/07 06:55:13;;;;;;;32.72;8.13;;;;;;;2.04;60.40;103971.84;4847510;29;124149;-71
2023/02/07 06:57:40;;;;;;;62.03;9.73;;;;;;;2.02;60.45;103978.75;4850312;28;123903;-71
2023/02/07 07:00:08;;;;;;;31.25;8.40;;;;;;;2.00;60.37;103980.41;4841987;29;115363;-70
2023/02/07 07:02:35;;;;;;;43.03;8.50;;;;;;;1.98;60.29;103982.06;4847510;29;114829;-70
2023/02/07 07:05:03;;;;;;;48.17;9.98;;;;;;;1.96;60.53;103988.97;4828327;29;125006;-70
2023/02/07 07:07:30;;;;;;;41.67;8.48;;;;;;;1.96;60.33;103983.72;4852841;28;124029;-74
2023/02/07 07:09:58;;;;;;;42.00;8.25;;;;;;;1.94;60.58;103986.28;4847291;29;114129;-71
2023/02/07 07:12:25;;;;;;;67.13;9.70;;;;;;;1.96;60.18;103994.19;4847455;28;114008;-71
2023/02/07 07:14:52;;;;;;;58.35;9.55;;;;;;;1.93;60.29;103988.81;4847411;29;123774;-70
2023/02/07 07:17:19;;;;;;;48.15;9.27;;;;;;;1.90;60.22;103999.13;4828618;29;124352;-70
2023/02/07 07:19:46;;;;;;;96.40;13.15;;;;;;;1.83;60.05;104002.31;4837175;29;113499;-71
2023/02/07 07:22:14;;;;;;;106.72;14.88;;;;;;;1.77;60.17;104007.28;4846775;29;114074;-70
2023/02/07 07:24:41;;;;;;;124.38;18.90;;;;;;;1.71;60.54;104006.22;4851279;28;124220;-71
2023/02/07 07:27:08;;;;;;;118.93;17.10;;;;;;;1.68;60.07;104013.91;4847879;29;124650;-71
2023/02/07 07:29:35;;;;;;;137.32;18.55;;;;;;;1.65;60.39;104012.88;4837623;29;113062;-69
2023/02/07 07:32:03;;;;;;;180.43;21.48;;;;;;;1.61;60.37;104009.25;4855021;28;114181;-71
2023/02/07 07:34:30;;;;;;;118.32;17.70;;;;;;;1.59;60.36;104012.63;4848941;28;125032;-70
2023/02/07 07:36:58;;;;;;;57.75;14.80;;;;;;;1.55;60.42;104012.47;4833982;29;123346;-71
2023/02/07 07:39:25;;;;;;;122.15;19.08;;;;;;;1.54;60.61;104009.78;4849327;29;116514;-71
2023/02/07 07:41:52;;;;;;;188.68;21.77;;;;;;;1.56;60.97;104013.38;4831820;29;113519;-70
2023/02/07 07:44:36;;;;;;;192.38;23.17;;;;;;;1.59;60.62;104023.06;4852801;28;123968;-70
2023/02/07 07:47:04;;;;;;;164.60;23.63;;;;;;;1.58;60.75;104022.16;4838345;29;124028;-70
2023/02/07 07:49:32;;;;;;;161.25;19.85;;;;;;;1.57;60.72;104024.72;4839210;29;114240;-71
2023/02/07 07:51:59;;;;;;;311.42;25.40;;;;;;;1.54;60.70;104025.47;4836281;28;116217;-70
2023/02/07 07:54:26;;;;;;;193.65;22.60;;;;;;;1.51;60.71;104026.22;4848260;28;124681;-70
2023/02/07 07:56:54;;;;;;;275.50;32.20;;;;;;;1.50;60.97;104034.00;4831528;29;124214;-70
2023/02/07 07:59:22;;;;;;;108.97;19.08;;;;;;;1.49;60.91;104021.78;4846900;28;114394;-69
2023/02/07 08:01:50;;;;;;;139.32;17.90;;;;;;;1.52;61.10;104027.13;4852675;28;114084;-70
2023/02/07 08:04:18;;;;;;;100.13;15.82;;;;;;;1.57;61.33;104033.44;4830352;29;123707;-70
2023/02/07 08:06:45;;;;;;;105.45;17.17;;;;;;;1.62;60.93;104033.63;4854395;29;124268;-70
2023/02/07 08:09:13;;;;;;;255.95;22.85;;;;;;;1.65;61.17;104033.78;4852852;28;114477;-70
2023/02/07 08:11:40;;;;;;;76.30;15.18;;;;;;;1.67;61.16;104033.00;4847291;28;113847;-71
2023/02/07 08:14:07;;;;;;;62.78;13.73;;;;;;;1.70;61.24;104033.16;4852900;28;124237;-70
2023/02/07 08:16:34;;;;;;;79.75;15.50;;;;;;;1.77;61.13;104033.41;4853946;29;124558;-70
2023/02/07 08:19:02;;;;;;;178.35;22.08;;;;;;;1.86;61.20;104039.03;4854255;28;114156;-70
2023/02/07 08:21:30;;;;;;;145.95;17.20;;;;;;;1.90;61.04;104043.56;4837307;28;113193;-70
2023/02/07 08:23:58;;;;;;;152.27;17.80;;;;;;;1.92;60.75;104039.28;4825832;29;122173;-70
2023/02/07 08:26:25;;;;;;;198.73;19.13;;;;;;;1.95;60.89;104039.44;4824694;29;123159;-70
2023/02/07 08:28:53;;;;;;;181.18;20.20;;;;;;;1.95;61.05;104039.44;4852716;29;114377;-71
2023/02/07 08:31:20;;;;;;;84.63;15.43;;;;;;;1.96;61.00;104046.47;4849088;28;113926;-71
2023/02/07 08:33:48;;;;;;;154.30;17.33;;;;;;;1.99;61.25;104041.34;4849456;28;124133;-71
2023/02/07 08:36:15;;;;;;;82.60;15.07;;;;;;;2.04;60.94;104050.28;4836792;28;123623;-71
2023/02/07 08:38:42;;;;;;;65.32;14.30;;;;;;;2.05;61.08;104046.81;4849774;28;115531;-71
2023/02/07 08:41:09;;;;;;;236.93;21.55;;;;;;;2.07;61.15;104039.97;4833848;28;114498;-71
2023/02/07 08:43:37;;;;;;;115.40;15.63;;;;;;;2.12;61.11;104043.63;4851045;29;124367;-71
2023/02/07 08:46:04;;;;;;;76.25;16.02;;;;;;;2.14;61.15;104031.53;4847943;28;123756;-71
2023/02/07 08:48:32;;;;;;;79.15;17.73;;;;;;;2.22;61.39;104038.78;4846571;28;115019;-71
2023/02/07 08:51:06;;;;;;;53.55;17.13;;;;;;;2.28;61.31;104039.94;4848500;29;114344;-71
2023/02/07 08:53:34;;;;;;;43.80;14.27;;;;;;;2.37;61.31;104038.53;4831476;29;124354;-71
2023/02/07 08:56:01;;;;;;;117.95;16.95;;;;;;;2.44;61.27;104036.22;4835228;29;123344;-72
2023/02/07 08:58:29;;;;;;;93.60;17.92;;;;;;;2.50;61.25;104035.59;4853778;29;115044;-72
2023/02/07 09:00:56;;;;;;;39.75;15.50;;;;;;;2.51;61.15;104033.03;4854711;29;113598;-72
2023/02/07 09:03:23;;;;;;;47.13;16.48;;;;;;;2.56;61.27;104030.59;4843634;28;124046;-73
2023/02/07 09:05:56;;;;;;;54.90;17.88;;;;;;;2.62;61.27;104037.78;4847654;28;124383;-72
2023/02/07 09:08:23;;;;;;;54.80;16.67;;;;;;;2.69;61.56;104026.72;4834966;29;113400;-72
2023/02/07 09:10:51;;;;;;;48.50;16.67;;;;;;;2.75;61.31;104026.06;4845771;28;114044;-72
2023/02/07 09:13:18;;;;;;;56.90;15.82;;;;;;;2.79;61.09;104034.13;4845640;28;124372;-72
2023/02/07 09:15:55;;;;;;;42.22;16.30;;;;;;;2.84;61.22;104037.78;4842922;29;124705;-72
2023/02/07 09:18:24;;;;;;;83.47;17.38;;;;;;;2.87;61.34;104024.84;4846239;28;114202;-72
2023/02/07 09:20:52;;;;;;;48.22;15.57;;;;;;;2.90;61.18;104019.72;4831566;29;112215;-72
2023/02/07 09:23:19;;;;;;;44.70;15.50;;;;;;;2.93;61.36;104014.59;4834031;29;123921;-72
2023/02/07 09:25:49;;;;;;;57.17;16.13;;;;;;;2.98;61.34;104024.38;4827175;28;123914;-73
2023/02/07 09:28:17;;;;;;;57.78;17.70;;;;;;;3.03;61.07;104025.41;4853587;28;115176;-73
2023/02/07 09:30:46;;;;;;;41.90;15.13;;;;;;;3.04;61.12;104016.75;4834114;29;115552;-73
2023/02/07 09:33:14;;;;;;;39.90;16.50;;;;;;;3.06;61.07;104022.91;4831506;29;122794;-73
2023/02/07 09:35:47;;;;;;;38.28;15.50;;;;;;;3.06;61.15;104008.09;4834974;28;124177;-73
2023/02/07 09:38:20;;;;;;;43.13;15.20;;;;;;;3.10;61.03;104009.09;4854969;28;114297;-73
2023/02/07 09:40:50;;;;;;;46.08;16.63;;;;;;;3.13;61.20;104009.22;4841941;28;113318;-73
2023/02/07 09:43:36;;;;;;;42.80;15.00;;;;;;;3.18;61.16;104007.66;4859708;28;124261;-74
2023/02/07 09:46:11;;;;;;;44.28;16.40;;;;;;;3.22;61.30;104009.56;4854010;28;123703;-74
2023/02/07 09:49:33;;;;;;;41.97;15.88;;;;;;;3.26;61.11;103998.38;4839788;29;114193;-75
2023/02/07 09:52:02;;;;;;;44.45;16.00;;;;;;;3.32;61.40;103995.06;4807443;29;113248;-75
2023/02/07 09:54:43;;;;;;;38.65;15.15;;;;;;;3.39;61.30;104001.41;4854762;28;124730;-75
2023/02/07 09:57:17;;;;;;;42.00;15.05;;;;;;;3.44;61.46;103995.50;4852541;29;123958;-75
2023/02/07 09:59:54;;;;;;;39.33;14.85;;;;;;;3.50;61.34;103994.81;4852736;29;113414;-75
2023/02/07 10:02:31;;;;;;;39.58;15.65;;;;;;;3.56;61.50;103995.06;4860654;28;113390;-75
2023/02/07 10:05:15;;;;;;;44.75;15.77;;;;;;;3.63;61.60;103997.03;4857888;29;123889;-75
2023/02/07 10:07:47;;;;;;;39.83;14.40;;;;;;;3.73;61.49;103993.03;4836468;29;123814;-75
2023/02/07 10:10:17;;;;;;;40.45;14.77;;;;;;;3.84;61.40;104001.25;4852968;28;113552;-75
2023/02/07 10:13:06;;;;;;;40.90;15.75;;;;;;;3.93;61.63;103992.81;4843869;29;113951;-74
2023/02/07 10:15:48;;;;;;;41.97;15.77;;;;;;;3.98;61.25;103997.34;4857201;29;123969;-74
2023/02/07 10:18:37;;;;;;;36.35;14.43;;;;;;;4.05;61.35;103991.47;4857193;28;123525;-74
2023/02/07 10:21:18;;;;;;;39.63;15.35;;;;;;;4.12;61.40;103999.53;4856763;28;115849;-73
2023/02/07 10:24:07;;;;;;;40.40;14.88;;;;;;;4.21;61.32;103991.97;4843297;29;114116;-74
2023/02/07 10:26:36;;;;;;;30.67;12.68;;;;;;;4.29;61.36;103990.47;4846557;29;125114;-74
2023/02/07 10:29:21;;;;;;;34.28;13.25;;;;;;;4.33;61.42;103984.47;4859275;28;123959;-73
2023/02/07 10:31:51;;;;;;;39.78;14.63;;;;;;;4.42;61.47;103982.16;4849122;28;114798;-74
2023/02/07 10:34:22;;;;;;;28.58;13.13;;;;;;;4.52;61.35;103992.94;4843063;28;113224;-74
2023/02/07 10:36:52;;;;;;;29.02;12.23;;;;;;;4.62;61.25;103989.78;4857696;28;124129;-73
2023/02/07 10:39:30;;;;;;;31.05;12.52;;;;;;;4.71;61.41;103995.31;4858214;28;124680;-74
2023/02/07 10:41:58;;;;;;;27.42;11.13;;;;;;;4.77;61.20;103992.84;4843718;29;113334;-73
2023/02/07 10:44:28;;;;;;;24.90;10.85;;;;;;;4.82;60.81;103996.53;4842660;28;113130;-73
2023/02/07 10:47:02;;;;;;;25.67;10.70;;;;;;;4.86;61.02;103990.50;4857267;29;124135;-74
2023/02/07 10:49:33;;;;;;;24.50;9.90;;;;;;;4.94;60.81;103992.47;4845927;29;123870;-74
2023/02/07 10:52:14;;;;;;;24.88;10.88;;;;;;;5.00;61.02;103975.13;4828048;29;113402;-74
2023/02/07 10:55:02;;;;;;;20.02;8.68;;;;;;;5.09;60.74;103981.53;4839524;28;113693;-75
2023/02/07 10:57:30;;;;;;;22.30;9.57;;;;;;;5.16;60.66;103979.13;4842255;28;123277;-75
2023/02/07 11:00:19;;;;;;;19.20;9.50;;;;;;;5.22;60.96;103984.53;4825777;29;122550;-75
2023/02/07 11:02:51;;;;;;;18.15;8.43;;;;;;;5.32;60.43;103979.53;4828237;29;113673;-75
2023/02/07 11:05:20;;;;;;;19.02;9.05;;;;;;;5.36;60.58;103973.50;4842714;28;114214;-75
2023/02/07 11:08:03;;;;;;;19.95;9.38;;;;;;;5.43;60.39;103972.84;4831288;29;124620;-76
2023/02/07 11:10:44;;;;;;;20.20;9.13;;;;;;;5.52;60.70;103970.44;4857515;28;124333;-76
2023/02/07 11:13:44;;;;;;;20.25;9.05;;;;;;;5.61;60.20;103973.31;4826365;29;114917;-75
2023/02/07 11:16:15;;;;;;;20.08;9.55;;;;;;;5.71;60.63;103969.19;4839429;29;114284;-76
2023/02/07 11:19:10;;;;;;;21.15;9.77;;;;;;;5.83;60.47;103961.59;4859015;29;123975;-76
2023/02/07 11:21:41;;;;;;;18.17;9.20;;;;;;;5.98;60.69;103966.38;4852688;28;124005;-77
2023/02/07 11:24:18;;;;;;;18.70;8.18;;;;;;;6.09;60.30;103963.13;4841354;28;114586;-77
2023/02/07 11:27:22;;;;;;;18.92;8.10;;;;;;;6.20;60.32;103967.81;4846311;28;113664;-77
2023/02/07 11:30:06;;;;;;;17.42;8.27;;;;;;;6.28;59.87;103973.25;4829075;29;123186;-77
2023/02/07 11:32:37;;;;;;;18.45;7.97;;;;;;;6.37;59.94;103965.56;4847556;28;123924;-77